sensor_id;sensor_type;location;lat;lon;timestamp;temperature;humidity
4505;DHT22;2265;48.794;9.520;2023-06-22T00:01:20;21.90;98.00
4505;DHT22;2265;48.794;9.520;2023-06-22T00:03:49;21.80;98.00
4505;DHT22;2265;48.794;9.520;2023-06-22T00:06:16;21.90;98.00
4505;DHT22;2265;48.794;9.520;2023-06-22T00:08:43;21.80;98.00
4505;DHT22;2265;48.794;9.520;2023-06-22T00:11:10;21.80;98.00
4505;DHT22;2265;48.794;9.520;2023-06-22T00:13:38;21.70;98.00
4505;DHT22;2265;48.794;9.520;2023-06-22T00:16:05;21.80;98.00
4505;DHT22;2265;48.794;9.520;2023-06-22T00:18:32;21.80;98.00
4505;DHT22;2265;48.794;9.520;2023-06-22T00:21:01;21.80;98.00
4505;DHT22;2265;48.794;9.520;2023-06-22T00:23:28;21.70;98.00
4505;DHT22;2265;48.794;9.520;2023-06-22T00:25:59;21.60;98.00
4505;DHT22;2265;48.794;9.520;2023-06-22T00:28:26;21.50;98.00
4505;DHT22;2265;48.794;9.520;2023-06-22T00:30:54;21.50;98.00
4505;DHT22;2265;48.794;9.520;2023-06-22T00:33:21;21.50;98.00
4505;DHT22;2265;48.794;9.520;2023-06-22T00:35:48;21.50;98.00
4505;DHT22;2265;48.794;9.520;2023-06-22T00:38:19;21.50;98.00
4505;DHT22;2265;48.794;9.520;2023-06-22T00:40:46;21.50;98.00
4505;DHT22;2265;48.794;9.520;2023-06-22T00:43:14;21.60;98.00
4505;DHT22;2265;48.794;9.520;2023-06-22T00:45:41;21.60;98.00
4505;DHT22;2265;48.794;9.520;2023-06-22T00:48:08;21.60;98.00
4505;DHT22;2265;48.794;9.520;2023-06-22T00:50:36;21.70;98.00
4505;DHT22;2265;48.794;9.520;2023-06-22T00:53:06;21.70;98.00
4505;DHT22;2265;48.794;9.520;2023-06-22T00:55:37;21.80;98.00
4505;DHT22;2265;48.794;9.520;2023-06-22T00:58:06;21.90;98.00
4505;DHT22;2265;48.794;9.520;2023-06-22T01:00:36;21.90;98.00
4505;DHT22;2265;48.794;9.520;2023-06-22T01:03:03;22.00;98.00
4505;DHT22;2265;48.794;9.520;2023-06-22T01:05:34;22.10;98.00
4505;DHT22;2265;48.794;9.520;2023-06-22T01:08:21;21.90;98.00
4505;DHT22;2265;48.794;9.520;2023-06-22T01:10:56;21.90;98.00
4505;DHT22;2265;48.794;9.520;2023-06-22T01:13:30;22.00;98.00
4505;DHT22;2265;48.794;9.520;2023-06-22T01:16:02;21.80;98.00
4505;DHT22;2265;48.794;9.520;2023-06-22T01:18:31;21.50;98.00
4505;DHT22;2265;48.794;9.520;2023-06-22T01:21:02;21.40;98.00
4505;DHT22;2265;48.794;9.520;2023-06-22T01:23:50;21.30;98.00
4505;DHT22;2265;48.794;9.520;2023-06-22T01:26:25;21.20;98.00
4505;DHT22;2265;48.794;9.520;2023-06-22T01:28:57;21.40;98.00
4505;DHT22;2265;48.794;9.520;2023-06-22T01:31:27;21.30;98.00
4505;DHT22;2265;48.794;9.520;2023-06-22T01:33:59;21.00;98.00
4505;DHT22;2265;48.794;9.520;2023-06-22T01:36:27;21.00;98.00
4505;DHT22;2265;48.794;9.520;2023-06-22T01:38:57;20.90;98.00
4505;DHT22;2265;48.794;9.520;2023-06-22T01:41:26;20.80;98.00
4505;DHT22;2265;48.794;9.520;2023-06-22T01:43:56;20.80;98.00
4505;DHT22;2265;48.794;9.520;2023-06-22T01:46:24;20.80;98.00
4505;DHT22;2265;48.794;9.520;2023-06-22T01:48:51;20.90;98.00
4505;DHT22;2265;48.794;9.520;2023-06-22T01:51:19;20.80;98.00
4505;DHT22;2265;48.794;9.520;2023-06-22T01:53:46;21.00;98.00
4505;DHT22;2265;48.794;9.520;2023-06-22T01:56:17;21.00;98.00
4505;DHT22;2265;48.794;9.520;2023-06-22T01:58:48;20.90;98.00
4505;DHT22;2265;48.794;9.520;2023-06-22T02:01:23;20.80;98.00
4505;DHT22;2265;48.794;9.520;2023-06-22T02:03:56;20.80;98.00
4505;DHT22;2265;48.794;9.520;2023-06-22T02:06:27;20.90;98.00
4505;DHT22;2265;48.794;9.520;2023-06-22T02:09:04;21.10;98.00
4505;DHT22;2265;48.794;9.520;2023-06-22T02:11:33;20.90;98.00
4505;DHT22;2265;48.794;9.520;2023-06-22T02:14:02;20.90;98.00
4505;DHT22;2265;48.794;9.520;2023-06-22T02:16:31;20.80;98.00
4505;DHT22;2265;48.794;9.520;2023-06-22T02:19:01;20.80;98.00
4505;DHT22;2265;48.794;9.520;2023-06-22T02:21:30;21.00;98.00
4505;DHT22;2265;48.794;9.520;2023-06-22T02:23:57;20.80;98.00
4505;DHT22;2265;48.794;9.520;2023-06-22T02:26:25;20.60;98.00
4505;DHT22;2265;48.794;9.520;2023-06-22T02:28:53;20.60;98.00
4505;DHT22;2265;48.794;9.520;2023-06-22T02:31:20;20.70;98.00
4505;DHT22;2265;48.794;9.520;2023-06-22T02:33:57;20.90;98.00
4505;DHT22;2265;48.794;9.520;2023-06-22T02:36:24;20.70;98.00
4505;DHT22;2265;48.794;9.520;2023-06-22T02:38:56;20.30;98.00
4505;DHT22;2265;48.794;9.520;2023-06-22T02:41:26;20.10;98.00
4505;DHT22;2265;48.794;9.520;2023-06-22T02:43:53;20.00;98.00
4505;DHT22;2265;48.794;9.520;2023-06-22T02:46:20;20.10;98.00
4505;DHT22;2265;48.794;9.520;2023-06-22T02:48:49;20.00;98.00
4505;DHT22;2265;48.794;9.520;2023-06-22T02:51:16;20.00;98.00
4505;DHT22;2265;48.794;9.520;2023-06-22T02:53:44;19.70;98.00
4505;DHT22;2265;48.794;9.520;2023-06-22T02:56:12;19.80;98.00
4505;DHT22;2265;48.794;9.520;2023-06-22T02:58:39;19.90;98.00
4505;DHT22;2265;48.794;9.520;2023-06-22T03:01:06;19.90;98.00
4505;DHT22;2265;48.794;9.520;2023-06-22T03:03:33;20.00;98.00
4505;DHT22;2265;48.794;9.520;2023-06-22T03:06:02;20.00;98.00
4505;DHT22;2265;48.794;9.520;2023-06-22T03:08:29;20.10;98.00
4505;DHT22;2265;48.794;9.520;2023-06-22T03:10:56;20.20;98.00
4505;DHT22;2265;48.794;9.520;2023-06-22T03:13:23;20.30;98.00
4505;DHT22;2265;48.794;9.520;2023-06-22T03:15:50;20.30;98.00
4505;DHT22;2265;48.794;9.520;2023-06-22T03:18:18;20.30;98.00
4505;DHT22;2265;48.794;9.520;2023-06-22T03:20:45;20.60;98.00
4505;DHT22;2265;48.794;9.520;2023-06-22T03:23:13;20.60;98.00
4505;DHT22;2265;48.794;9.520;2023-06-22T03:25:41;20.70;98.00
4505;DHT22;2265;48.794;9.520;2023-06-22T03:28:10;20.60;98.00
4505;DHT22;2265;48.794;9.520;2023-06-22T03:30:37;20.50;98.00
4505;DHT22;2265;48.794;9.520;2023-06-22T03:33:04;20.30;98.00
4505;DHT22;2265;48.794;9.520;2023-06-22T03:35:32;20.20;98.00
4505;DHT22;2265;48.794;9.520;2023-06-22T03:38:00;20.20;98.00
4505;DHT22;2265;48.794;9.520;2023-06-22T03:40:28;20.00;98.00
4505;DHT22;2265;48.794;9.520;2023-06-22T03:42:55;19.90;98.00
4505;DHT22;2265;48.794;9.520;2023-06-22T03:45:22;19.80;98.00
4505;DHT22;2265;48.794;9.520;2023-06-22T03:47:50;19.70;98.00
4505;DHT22;2265;48.794;9.520;2023-06-22T03:50:17;19.80;98.00
4505;DHT22;2265;48.794;9.520;2023-06-22T03:52:45;19.90;98.00
4505;DHT22;2265;48.794;9.520;2023-06-22T03:55:13;19.90;98.00
4505;DHT22;2265;48.794;9.520;2023-06-22T03:57:41;19.80;98.00
4505;DHT22;2265;48.794;9.520;2023-06-22T04:00:09;19.70;98.00
4505;DHT22;2265;48.794;9.520;2023-06-22T04:02:36;19.60;98.00
4505;DHT22;2265;48.794;9.520;2023-06-22T04:05:04;19.60;98.00
4505;DHT22;2265;48.794;9.520;2023-06-22T04:07:31;19.50;98.00
4505;DHT22;2265;48.794;9.520;2023-06-22T04:09:59;19.50;98.00
4505;DHT22;2265;48.794;9.520;2023-06-22T04:12:27;19.60;98.00
4505;DHT22;2265;48.794;9.520;2023-06-22T04:14:55;19.60;98.00
4505;DHT22;2265;48.794;9.520;2023-06-22T04:17:22;19.60;98.00
4505;DHT22;2265;48.794;9.520;2023-06-22T04:19:50;19.80;98.00
4505;DHT22;2265;48.794;9.520;2023-06-22T04:22:17;19.80;98.00
4505;DHT22;2265;48.794;9.520;2023-06-22T04:24:44;19.90;98.00
4505;DHT22;2265;48.794;9.520;2023-06-22T04:27:11;19.90;98.00
4505;DHT22;2265;48.794;9.520;2023-06-22T04:29:39;20.00;98.00
4505;DHT22;2265;48.794;9.520;2023-06-22T04:32:16;20.10;98.00
4505;DHT22;2265;48.794;9.520;2023-06-22T04:34:50;20.10;98.00
4505;DHT22;2265;48.794;9.520;2023-06-22T04:37:18;20.30;98.00
4505;DHT22;2265;48.794;9.520;2023-06-22T04:39:45;20.30;98.00
4505;DHT22;2265;48.794;9.520;2023-06-22T04:42:12;20.30;98.00
4505;DHT22;2265;48.794;9.520;2023-06-22T04:44:40;20.50;98.00
4505;DHT22;2265;48.794;9.520;2023-06-22T04:47:07;20.70;98.00
4505;DHT22;2265;48.794;9.520;2023-06-22T04:49:37;20.80;98.00
4505;DHT22;2265;48.794;9.520;2023-06-22T04:52:07;20.90;98.00
4505;DHT22;2265;48.794;9.520;2023-06-22T04:54:36;21.00;98.00
4505;DHT22;2265;48.794;9.520;2023-06-22T04:57:05;21.10;98.00
4505;DHT22;2265;48.794;9.520;2023-06-22T04:59:35;21.20;98.00
4505;DHT22;2265;48.794;9.520;2023-06-22T05:02:05;21.20;98.00
4505;DHT22;2265;48.794;9.520;2023-06-22T05:04:35;21.20;98.00
4505;DHT22;2265;48.794;9.520;2023-06-22T05:07:04;21.30;98.00
4505;DHT22;2265;48.794;9.520;2023-06-22T05:09:32;21.20;98.00
4505;DHT22;2265;48.794;9.520;2023-06-22T05:12:02;21.20;98.00
4505;DHT22;2265;48.794;9.520;2023-06-22T05:14:30;21.10;98.00
4505;DHT22;2265;48.794;9.520;2023-06-22T05:16:57;21.10;98.00
4505;DHT22;2265;48.794;9.520;2023-06-22T05:19:29;21.20;98.00
4505;DHT22;2265;48.794;9.520;2023-06-22T05:22:00;21.30;98.00
4505;DHT22;2265;48.794;9.520;2023-06-22T05:24:27;21.40;98.00
4505;DHT22;2265;48.794;9.520;2023-06-22T05:26:54;21.50;98.00
4505;DHT22;2265;48.794;9.520;2023-06-22T05:29:21;21.60;98.00
4505;DHT22;2265;48.794;9.520;2023-06-22T05:31:48;21.80;98.00
4505;DHT22;2265;48.794;9.520;2023-06-22T05:34:15;21.90;98.00
4505;DHT22;2265;48.794;9.520;2023-06-22T05:36:43;22.00;98.00
4505;DHT22;2265;48.794;9.520;2023-06-22T05:39:15;22.00;98.00
4505;DHT22;2265;48.794;9.520;2023-06-22T05:41:42;22.10;98.00
4505;DHT22;2265;48.794;9.520;2023-06-22T05:44:09;22.10;98.00
4505;DHT22;2265;48.794;9.520;2023-06-22T05:46:37;22.20;98.00
4505;DHT22;2265;48.794;9.520;2023-06-22T05:49:04;22.30;98.00
4505;DHT22;2265;48.794;9.520;2023-06-22T05:51:31;22.30;98.00
4505;DHT22;2265;48.794;9.520;2023-06-22T05:53:59;22.40;98.00
4505;DHT22;2265;48.794;9.520;2023-06-22T05:56:27;22.50;98.00
4505;DHT22;2265;48.794;9.520;2023-06-22T05:58:54;22.60;98.00
4505;DHT22;2265;48.794;9.520;2023-06-22T06:01:21;22.70;98.00
4505;DHT22;2265;48.794;9.520;2023-06-22T06:03:48;22.80;98.00
4505;DHT22;2265;48.794;9.520;2023-06-22T06:06:18;22.80;98.00
4505;DHT22;2265;48.794;9.520;2023-06-22T06:08:47;22.90;98.00
4505;DHT22;2265;48.794;9.520;2023-06-22T06:11:14;23.00;98.00
4505;DHT22;2265;48.794;9.520;2023-06-22T06:13:43;23.10;98.00
4505;DHT22;2265;48.794;9.520;2023-06-22T06:16:11;23.20;98.00
4505;DHT22;2265;48.794;9.520;2023-06-22T06:18:38;23.40;98.00
4505;DHT22;2265;48.794;9.520;2023-06-22T06:21:05;23.40;98.00
4505;DHT22;2265;48.794;9.520;2023-06-22T06:23:32;23.50;98.00
4505;DHT22;2265;48.794;9.520;2023-06-22T06:25:59;23.60;98.00
4505;DHT22;2265;48.794;9.520;2023-06-22T06:28:26;23.60;98.00
4505;DHT22;2265;48.794;9.520;2023-06-22T06:30:55;23.80;98.00
4505;DHT22;2265;48.794;9.520;2023-06-22T06:33:22;24.10;98.00
4505;DHT22;2265;48.794;9.520;2023-06-22T06:35:50;24.20;98.00
4505;DHT22;2265;48.794;9.520;2023-06-22T06:38:17;24.30;98.00
4505;DHT22;2265;48.794;9.520;2023-06-22T06:40:44;24.40;98.00
4505;DHT22;2265;48.794;9.520;2023-06-22T06:43:11;24.50;98.00
4505;DHT22;2265;48.794;9.520;2023-06-22T06:45:40;24.50;98.00
4505;DHT22;2265;48.794;9.520;2023-06-22T06:48:09;24.50;98.00
4505;DHT22;2265;48.794;9.520;2023-06-22T06:50:36;24.60;98.00
4505;DHT22;2265;48.794;9.520;2023-06-22T06:53:03;24.70;98.00
4505;DHT22;2265;48.794;9.520;2023-06-22T06:55:32;24.70;98.00
4505;DHT22;2265;48.794;9.520;2023-06-22T06:57:59;24.90;98.00
4505;DHT22;2265;48.794;9.520;2023-06-22T07:00:27;24.90;98.00
4505;DHT22;2265;48.794;9.520;2023-06-22T07:02:54;25.10;98.00
4505;DHT22;2265;48.794;9.520;2023-06-22T07:05:23;25.00;98.00
4505;DHT22;2265;48.794;9.520;2023-06-22T07:07:52;24.90;98.00
4505;DHT22;2265;48.794;9.520;2023-06-22T07:10:19;25.00;98.00
4505;DHT22;2265;48.794;9.520;2023-06-22T07:12:46;25.10;98.00
4505;DHT22;2265;48.794;9.520;2023-06-22T07:15:13;25.10;98.00
4505;DHT22;2265;48.794;9.520;2023-06-22T07:17:41;25.20;98.00
4505;DHT22;2265;48.794;9.520;2023-06-22T07:20:10;25.40;98.00
4505;DHT22;2265;48.794;9.520;2023-06-22T07:22:39;25.50;98.00
4505;DHT22;2265;48.794;9.520;2023-06-22T07:25:07;25.50;98.00
4505;DHT22;2265;48.794;9.520;2023-06-22T07:27:36;25.70;98.00
4505;DHT22;2265;48.794;9.520;2023-06-22T07:30:06;25.70;98.00
4505;DHT22;2265;48.794;9.520;2023-06-22T07:32:34;25.80;98.00
4505;DHT22;2265;48.794;9.520;2023-06-22T07:35:01;25.80;98.00
4505;DHT22;2265;48.794;9.520;2023-06-22T07:37:29;26.00;98.00
4505;DHT22;2265;48.794;9.520;2023-06-22T07:40:01;26.00;98.00
4505;DHT22;2265;48.794;9.520;2023-06-22T07:42:31;26.00;98.00
4505;DHT22;2265;48.794;9.520;2023-06-22T07:44:59;26.20;98.00
4505;DHT22;2265;48.794;9.520;2023-06-22T07:47:28;26.30;98.00
4505;DHT22;2265;48.794;9.520;2023-06-22T07:49:55;26.50;98.00
4505;DHT22;2265;48.794;9.520;2023-06-22T07:52:24;26.70;98.00
4505;DHT22;2265;48.794;9.520;2023-06-22T07:54:51;26.70;98.00
4505;DHT22;2265;48.794;9.520;2023-06-22T07:57:20;26.90;98.00
4505;DHT22;2265;48.794;9.520;2023-06-22T07:59:47;27.00;98.00
4505;DHT22;2265;48.794;9.520;2023-06-22T08:02:14;27.10;98.00
4505;DHT22;2265;48.794;9.520;2023-06-22T08:04:41;27.10;98.00
4505;DHT22;2265;48.794;9.520;2023-06-22T08:07:08;27.20;98.00
4505;DHT22;2265;48.794;9.520;2023-06-22T08:09:37;27.40;98.00
4505;DHT22;2265;48.794;9.520;2023-06-22T08:12:05;27.60;98.00
4505;DHT22;2265;48.794;9.520;2023-06-22T08:14:37;27.70;98.00
4505;DHT22;2265;48.794;9.520;2023-06-22T08:17:04;27.90;98.00
4505;DHT22;2265;48.794;9.520;2023-06-22T08:19:32;28.00;98.00
4505;DHT22;2265;48.794;9.520;2023-06-22T08:21:59;28.10;98.00
4505;DHT22;2265;48.794;9.520;2023-06-22T08:24:27;28.30;98.00
4505;DHT22;2265;48.794;9.520;2023-06-22T08:27:02;28.40;98.00
4505;DHT22;2265;48.794;9.520;2023-06-22T08:29:29;28.50;98.00
4505;DHT22;2265;48.794;9.520;2023-06-22T08:31:58;28.60;98.00
4505;DHT22;2265;48.794;9.520;2023-06-22T08:34:25;28.70;98.00
4505;DHT22;2265;48.794;9.520;2023-06-22T08:36:53;28.90;97.30
4505;DHT22;2265;48.794;9.520;2023-06-22T08:39:20;29.10;97.00
4505;DHT22;2265;48.794;9.520;2023-06-22T08:41:48;29.30;95.80
4505;DHT22;2265;48.794;9.520;2023-06-22T08:44:18;29.40;96.20
4505;DHT22;2265;48.794;9.520;2023-06-22T08:46:45;29.50;95.90
4505;DHT22;2265;48.794;9.520;2023-06-22T08:49:14;29.60;94.80
4505;DHT22;2265;48.794;9.520;2023-06-22T08:51:42;29.60;94.20
4505;DHT22;2265;48.794;9.520;2023-06-22T08:54:10;29.50;93.50
4505;DHT22;2265;48.794;9.520;2023-06-22T08:56:37;29.60;94.70
4505;DHT22;2265;48.794;9.520;2023-06-22T08:59:04;29.60;94.30
4505;DHT22;2265;48.794;9.520;2023-06-22T09:01:33;29.60;94.20
4505;DHT22;2265;48.794;9.520;2023-06-22T09:04:00;29.80;94.10
4505;DHT22;2265;48.794;9.520;2023-06-22T09:06:29;29.90;93.30
4505;DHT22;2265;48.794;9.520;2023-06-22T09:08:57;30.00;93.00
4505;DHT22;2265;48.794;9.520;2023-06-22T09:11:25;30.20;93.70
4505;DHT22;2265;48.794;9.520;2023-06-22T09:13:52;30.30;93.70
4505;DHT22;2265;48.794;9.520;2023-06-22T09:16:19;30.40;92.40
4505;DHT22;2265;48.794;9.520;2023-06-22T09:18:48;30.40;93.90
4505;DHT22;2265;48.794;9.520;2023-06-22T09:21:15;30.60;93.60
4505;DHT22;2265;48.794;9.520;2023-06-22T09:23:43;30.80;93.00
4505;DHT22;2265;48.794;9.520;2023-06-22T09:26:15;30.80;91.70
4505;DHT22;2265;48.794;9.520;2023-06-22T09:28:43;31.00;91.90
4505;DHT22;2265;48.794;9.520;2023-06-22T09:31:10;31.20;91.80
4505;DHT22;2265;48.794;9.520;2023-06-22T09:33:37;31.20;91.20
4505;DHT22;2265;48.794;9.520;2023-06-22T09:36:08;31.40;90.00
4505;DHT22;2265;48.794;9.520;2023-06-22T09:38:35;31.50;90.60
4505;DHT22;2265;48.794;9.520;2023-06-22T09:41:04;31.60;90.00
4505;DHT22;2265;48.794;9.520;2023-06-22T09:43:32;31.70;89.00
4505;DHT22;2265;48.794;9.520;2023-06-22T09:46:00;31.70;89.70
4505;DHT22;2265;48.794;9.520;2023-06-22T09:48:27;32.00;88.20
4505;DHT22;2265;48.794;9.520;2023-06-22T09:50:55;32.00;87.50
4505;DHT22;2265;48.794;9.520;2023-06-22T09:53:22;32.10;89.80
4505;DHT22;2265;48.794;9.520;2023-06-22T09:55:49;32.30;88.30
4505;DHT22;2265;48.794;9.520;2023-06-22T09:58:18;32.30;87.30
4505;DHT22;2265;48.794;9.520;2023-06-22T10:00:45;32.20;88.10
4505;DHT22;2265;48.794;9.520;2023-06-22T10:03:12;32.10;87.70
4505;DHT22;2265;48.794;9.520;2023-06-22T10:05:39;32.10;87.40
4505;DHT22;2265;48.794;9.520;2023-06-22T10:08:07;32.20;87.20
4505;DHT22;2265;48.794;9.520;2023-06-22T10:10:35;32.20;87.90
4505;DHT22;2265;48.794;9.520;2023-06-22T10:13:08;32.40;87.10
4505;DHT22;2265;48.794;9.520;2023-06-22T10:15:37;32.50;87.50
4505;DHT22;2265;48.794;9.520;2023-06-22T10:18:05;32.70;87.40
4505;DHT22;2265;48.794;9.520;2023-06-22T10:20:32;32.90;87.40
4505;DHT22;2265;48.794;9.520;2023-06-22T10:22:59;33.10;84.30
4505;DHT22;2265;48.794;9.520;2023-06-22T10:25:26;33.30;86.50
4505;DHT22;2265;48.794;9.520;2023-06-22T10:27:55;33.30;85.20
4505;DHT22;2265;48.794;9.520;2023-06-22T10:30:22;33.30;84.50
4505;DHT22;2265;48.794;9.520;2023-06-22T10:32:51;33.20;85.70
4505;DHT22;2265;48.794;9.520;2023-06-22T10:35:18;33.10;84.60
4505;DHT22;2265;48.794;9.520;2023-06-22T10:37:46;33.00;84.80
4505;DHT22;2265;48.794;9.520;2023-06-22T10:40:14;32.90;85.00
4505;DHT22;2265;48.794;9.520;2023-06-22T10:42:42;32.80;85.20
4505;DHT22;2265;48.794;9.520;2023-06-22T10:45:09;32.70;85.70
4505;DHT22;2265;48.794;9.520;2023-06-22T10:47:36;32.90;85.40
4505;DHT22;2265;48.794;9.520;2023-06-22T10:50:06;33.00;85.70
4505;DHT22;2265;48.794;9.520;2023-06-22T10:52:34;33.30;86.40
4505;DHT22;2265;48.794;9.520;2023-06-22T10:55:01;33.60;85.30
4505;DHT22;2265;48.794;9.520;2023-06-22T10:57:28;34.00;84.80
4505;DHT22;2265;48.794;9.520;2023-06-22T10:59:55;34.20;83.30
4505;DHT22;2265;48.794;9.520;2023-06-22T11:02:22;34.30;83.00
4505;DHT22;2265;48.794;9.520;2023-06-22T11:04:50;34.20;83.50
4505;DHT22;2265;48.794;9.520;2023-06-22T11:07:21;34.40;83.90
4505;DHT22;2265;48.794;9.520;2023-06-22T11:09:48;34.50;83.00
4505;DHT22;2265;48.794;9.520;2023-06-22T11:12:15;34.50;82.60
4505;DHT22;2265;48.794;9.520;2023-06-22T11:14:42;34.60;81.60
4505;DHT22;2265;48.794;9.520;2023-06-22T11:17:09;34.60;82.50
4505;DHT22;2265;48.794;9.520;2023-06-22T11:19:37;34.70;82.40
4505;DHT22;2265;48.794;9.520;2023-06-22T11:22:05;34.60;81.30
4505;DHT22;2265;48.794;9.520;2023-06-22T11:24:34;34.80;81.50
4505;DHT22;2265;48.794;9.520;2023-06-22T11:27:01;34.90;80.20
4505;DHT22;2265;48.794;9.520;2023-06-22T11:29:28;35.00;80.70
4505;DHT22;2265;48.794;9.520;2023-06-22T11:31:56;35.10;81.00
4505;DHT22;2265;48.794;9.520;2023-06-22T11:34:23;35.20;80.20
4505;DHT22;2265;48.794;9.520;2023-06-22T11:36:50;35.00;80.90
4505;DHT22;2265;48.794;9.520;2023-06-22T11:39:17;35.10;80.90
4505;DHT22;2265;48.794;9.520;2023-06-22T11:41:46;35.20;80.40
4505;DHT22;2265;48.794;9.520;2023-06-22T11:44:14;35.20;79.90
4505;DHT22;2265;48.794;9.520;2023-06-22T11:46:41;35.20;80.50
4505;DHT22;2265;48.794;9.520;2023-06-22T11:49:08;35.10;80.40
4505;DHT22;2265;48.794;9.520;2023-06-22T11:51:35;35.10;81.50
4505;DHT22;2265;48.794;9.520;2023-06-22T11:54:02;35.10;80.80
4505;DHT22;2265;48.794;9.520;2023-06-22T11:56:29;35.00;80.30
4505;DHT22;2265;48.794;9.520;2023-06-22T11:59:00;35.00;80.40
4505;DHT22;2265;48.794;9.520;2023-06-22T12:01:27;34.70;80.50
4505;DHT22;2265;48.794;9.520;2023-06-22T12:03:54;34.60;81.10
4505;DHT22;2265;48.794;9.520;2023-06-22T12:06:22;34.50;82.00
4505;DHT22;2265;48.794;9.520;2023-06-22T12:08:49;34.40;81.60
4505;DHT22;2265;48.794;9.520;2023-06-22T12:11:16;34.20;82.20
4505;DHT22;2265;48.794;9.520;2023-06-22T12:13:43;34.00;83.30
4505;DHT22;2265;48.794;9.520;2023-06-22T12:16:12;33.80;84.10
4505;DHT22;2265;48.794;9.520;2023-06-22T12:18:39;33.80;84.00
4505;DHT22;2265;48.794;9.520;2023-06-22T12:21:07;33.80;83.90
4505;DHT22;2265;48.794;9.520;2023-06-22T12:23:34;33.80;84.30
4505;DHT22;2265;48.794;9.520;2023-06-22T12:26:01;33.90;83.70
4505;DHT22;2265;48.794;9.520;2023-06-22T12:28:28;33.90;83.60
4505;DHT22;2265;48.794;9.520;2023-06-22T12:30:55;34.00;83.40
4505;DHT22;2265;48.794;9.520;2023-06-22T12:33:23;34.00;82.90
4505;DHT22;2265;48.794;9.520;2023-06-22T12:35:50;33.80;84.10
4505;DHT22;2265;48.794;9.520;2023-06-22T12:38:17;33.70;84.10
4505;DHT22;2265;48.794;9.520;2023-06-22T12:40:44;33.60;84.50
4505;DHT22;2265;48.794;9.520;2023-06-22T12:43:12;33.50;84.50
4505;DHT22;2265;48.794;9.520;2023-06-22T12:45:40;33.30;84.70
4505;DHT22;2265;48.794;9.520;2023-06-22T12:48:07;33.20;85.50
4505;DHT22;2265;48.794;9.520;2023-06-22T12:50:36;33.00;86.10
4505;DHT22;2265;48.794;9.520;2023-06-22T12:53:03;32.90;86.70
4505;DHT22;2265;48.794;9.520;2023-06-22T12:55:33;32.80;87.70
4505;DHT22;2265;48.794;9.520;2023-06-22T12:58:00;32.70;88.50
4505;DHT22;2265;48.794;9.520;2023-06-22T13:00:27;32.60;89.30
4505;DHT22;2265;48.794;9.520;2023-06-22T13:02:54;32.50;90.10
4505;DHT22;2265;48.794;9.520;2023-06-22T13:05:24;32.50;91.00
4505;DHT22;2265;48.794;9.520;2023-06-22T13:07:52;32.40;92.70
4505;DHT22;2265;48.794;9.520;2023-06-22T13:10:19;32.20;91.50
4505;DHT22;2265;48.794;9.520;2023-06-22T13:12:46;32.20;92.10
4505;DHT22;2265;48.794;9.520;2023-06-22T13:15:13;32.30;92.40
4505;DHT22;2265;48.794;9.520;2023-06-22T13:17:40;32.30;92.80
4505;DHT22;2265;48.794;9.520;2023-06-22T13:20:08;32.30;92.60
4505;DHT22;2265;48.794;9.520;2023-06-22T13:22:35;32.30;91.00
4505;DHT22;2265;48.794;9.520;2023-06-22T13:25:08;32.30;91.20
4505;DHT22;2265;48.794;9.520;2023-06-22T13:27:37;32.30;91.30
4505;DHT22;2265;48.794;9.520;2023-06-22T13:30:12;32.50;89.30
4505;DHT22;2265;48.794;9.520;2023-06-22T13:32:39;32.70;92.40
4505;DHT22;2265;48.794;9.520;2023-06-22T13:35:08;32.90;91.50
4505;DHT22;2265;48.794;9.520;2023-06-22T13:37:35;33.00;89.60
4505;DHT22;2265;48.794;9.520;2023-06-22T13:40:03;33.10;87.20
4505;DHT22;2265;48.794;9.520;2023-06-22T13:42:33;33.10;84.90
4505;DHT22;2265;48.794;9.520;2023-06-22T13:45:01;33.20;87.00
4505;DHT22;2265;48.794;9.520;2023-06-22T13:47:28;33.30;86.40
4505;DHT22;2265;48.794;9.520;2023-06-22T13:49:55;33.30;84.00
4505;DHT22;2265;48.794;9.520;2023-06-22T13:52:23;33.30;85.90
4505;DHT22;2265;48.794;9.520;2023-06-22T13:54:51;33.40;84.10
4505;DHT22;2265;48.794;9.520;2023-06-22T13:57:21;33.50;84.30
4505;DHT22;2265;48.794;9.520;2023-06-22T13:59:49;33.50;83.50
4505;DHT22;2265;48.794;9.520;2023-06-22T14:02:18;33.60;83.40
4505;DHT22;2265;48.794;9.520;2023-06-22T14:04:45;33.60;84.40
4505;DHT22;2265;48.794;9.520;2023-06-22T14:07:13;33.70;83.40
4505;DHT22;2265;48.794;9.520;2023-06-22T14:09:40;33.90;82.70
4505;DHT22;2265;48.794;9.520;2023-06-22T14:12:09;34.00;83.10
4505;DHT22;2265;48.794;9.520;2023-06-22T14:14:37;34.20;80.20
4505;DHT22;2265;48.794;9.520;2023-06-22T14:17:08;34.30;79.80
4505;DHT22;2265;48.794;9.520;2023-06-22T14:19:42;34.30;78.70
4505;DHT22;2265;48.794;9.520;2023-06-22T14:22:09;34.40;79.50
4505;DHT22;2265;48.794;9.520;2023-06-22T14:24:36;34.30;79.70
4505;DHT22;2265;48.794;9.520;2023-06-22T14:27:04;34.30;79.30
4505;DHT22;2265;48.794;9.520;2023-06-22T14:29:33;34.20;76.20
4505;DHT22;2265;48.794;9.520;2023-06-22T14:32:00;34.10;78.10
4505;DHT22;2265;48.794;9.520;2023-06-22T14:34:30;34.00;78.70
4505;DHT22;2265;48.794;9.520;2023-06-22T14:36:57;34.00;77.40
4505;DHT22;2265;48.794;9.520;2023-06-22T14:39:33;33.90;77.40
4505;DHT22;2265;48.794;9.520;2023-06-22T14:42:01;33.90;78.80
4505;DHT22;2265;48.794;9.520;2023-06-22T14:44:29;33.90;78.20
4505;DHT22;2265;48.794;9.520;2023-06-22T14:46:58;33.80;78.10
4505;DHT22;2265;48.794;9.520;2023-06-22T14:49:25;33.90;77.00
4505;DHT22;2265;48.794;9.520;2023-06-22T14:51:55;34.30;77.50
4505;DHT22;2265;48.794;9.520;2023-06-22T14:54:22;34.70;77.00
4505;DHT22;2265;48.794;9.520;2023-06-22T14:56:50;34.90;77.60
4505;DHT22;2265;48.794;9.520;2023-06-22T14:59:17;34.90;77.60
4505;DHT22;2265;48.794;9.520;2023-06-22T15:01:44;34.70;77.50
4505;DHT22;2265;48.794;9.520;2023-06-22T15:04:11;34.50;78.60
4505;DHT22;2265;48.794;9.520;2023-06-22T15:06:38;34.30;77.20
4505;DHT22;2265;48.794;9.520;2023-06-22T15:09:07;34.10;78.40
4505;DHT22;2265;48.794;9.520;2023-06-22T15:11:34;34.20;78.70
4505;DHT22;2265;48.794;9.520;2023-06-22T15:14:01;34.50;78.20
4505;DHT22;2265;48.794;9.520;2023-06-22T15:16:28;34.70;77.70
4505;DHT22;2265;48.794;9.520;2023-06-22T15:18:55;34.90;76.80
4505;DHT22;2265;48.794;9.520;2023-06-22T15:21:23;35.00;76.60
4505;DHT22;2265;48.794;9.520;2023-06-22T15:23:50;34.90;77.00
4505;DHT22;2265;48.794;9.520;2023-06-22T15:26:19;34.70;77.30
4505;DHT22;2265;48.794;9.520;2023-06-22T15:28:46;34.50;77.80
4505;DHT22;2265;48.794;9.520;2023-06-22T15:31:15;34.60;78.40
4505;DHT22;2265;48.794;9.520;2023-06-22T15:33:42;34.80;78.10
4505;DHT22;2265;48.794;9.520;2023-06-22T15:36:09;35.00;76.50
4505;DHT22;2265;48.794;9.520;2023-06-22T15:38:36;35.10;73.40
4505;DHT22;2265;48.794;9.520;2023-06-22T15:41:03;35.10;72.80
4505;DHT22;2265;48.794;9.520;2023-06-22T15:43:32;35.10;72.20
4505;DHT22;2265;48.794;9.520;2023-06-22T15:45:59;35.10;72.50
4505;DHT22;2265;48.794;9.520;2023-06-22T15:48:26;35.30;71.70
4505;DHT22;2265;48.794;9.520;2023-06-22T15:50:53;35.40;70.50
4505;DHT22;2265;48.794;9.520;2023-06-22T15:53:20;35.10;69.70
4505;DHT22;2265;48.794;9.520;2023-06-22T15:55:47;34.70;69.60
4505;DHT22;2265;48.794;9.520;2023-06-22T15:58:14;34.40;70.70
4505;DHT22;2265;48.794;9.520;2023-06-22T16:00:44;33.90;70.50
4505;DHT22;2265;48.794;9.520;2023-06-22T16:03:18;33.50;71.30
4505;DHT22;2265;48.794;9.520;2023-06-22T16:05:45;33.30;71.80
4505;DHT22;2265;48.794;9.520;2023-06-22T16:08:12;33.10;72.60